sensor_id;sensor_type;location;lat;lon;timestamp;pressure;altitude;pressure_sealevel;temperature;humidity
68075;BME280;54864;52.002;5.468;2022-12-20T00:00:15;101177.94;;;11.81;65.88
68075;BME280;54864;52.002;5.468;2022-12-20T00:01:20;101168.28;;;11.60;66.60
68075;BME280;54864;52.002;5.468;2022-12-20T00:02:21;101160.41;;;11.58;66.85
68075;BME280;54864;52.002;5.468;2022-12-20T00:03:23;101166.41;;;11.62;66.52
68075;BME280;54864;52.002;5.468;2022-12-20T00:04:24;101170.41;;;11.72;66.40
68075;BME280;54864;52.002;5.468;2022-12-20T00:05:26;101172.63;;;11.61;66.77
68075;BME280;54864;52.002;5.468;2022-12-20T00:06:27;101164.97;;;11.75;66.53
68075;BME280;54864;52.002;5.468;2022-12-20T00:07:28;101180.66;;;11.80;66.26
68075;BME280;54864;52.002;5.468;2022-12-20T00:08:29;101169.88;;;11.84;65.76
68075;BME280;54864;52.002;5.468;2022-12-20T00:09:31;101172.25;;;11.90;65.82
68075;BME280;54864;52.002;5.468;2022-12-20T00:10:35;101175.75;;;11.91;65.95
68075;BME280;54864;52.002;5.468;2022-12-20T00:11:38;101170.16;;;11.78;65.94
68075;BME280;54864;52.002;5.468;2022-12-20T00:12:40;101174.16;;;11.87;66.14
68075;BME280;54864;52.002;5.468;2022-12-20T00:13:45;101176.41;;;11.75;66.02
68075;BME280;54864;52.002;5.468;2022-12-20T00:14:46;101165.78;;;11.77;66.24
68075;BME280;54864;52.002;5.468;2022-12-20T00:15:48;101174.09;;;11.88;65.81
68075;BME280;54864;52.002;5.468;2022-12-20T00:16:50;101182.88;;;11.89;65.73
68075;BME280;54864;52.002;5.468;2022-12-20T00:17:51;101181.63;;;11.97;65.83
68075;BME280;54864;52.002;5.468;2022-12-20T00:18:54;101179.91;;;11.96;65.42
68075;BME280;54864;52.002;5.468;2022-12-20T00:19:56;101167.53;;;11.97;65.54
68075;BME280;54864;52.002;5.468;2022-12-20T00:20:58;101173.63;;;11.99;65.35
68075;BME280;54864;52.002;5.468;2022-12-20T00:21:58;101170.97;;;11.99;65.13
68075;BME280;54864;52.002;5.468;2022-12-20T00:23:00;101172.31;;;11.89;65.88
68075;BME280;54864;52.002;5.468;2022-12-20T00:24:01;101173.69;;;11.97;65.56
68075;BME280;54864;52.002;5.468;2022-12-20T00:25:05;101183.69;;;11.70;66.39
68075;BME280;54864;52.002;5.468;2022-12-20T00:26:07;101176.03;;;11.85;66.14
68075;BME280;54864;52.002;5.468;2022-12-20T00:27:09;101174.91;;;11.90;65.58
68075;BME280;54864;52.002;5.468;2022-12-20T00:28:11;101168.69;;;11.91;65.50
68075;BME280;54864;52.002;5.468;2022-12-20T00:29:12;101166.97;;;11.90;65.82
68075;BME280;54864;52.002;5.468;2022-12-20T00:30:14;101171.13;;;11.96;65.45
68075;BME280;54864;52.002;5.468;2022-12-20T00:31:17;101159.03;;;11.90;65.71
68075;BME280;54864;52.002;5.468;2022-12-20T00:32:20;101161.13;;;12.02;65.55
68075;BME280;54864;52.002;5.468;2022-12-20T00:33:21;101159.13;;;12.07;65.24
68075;BME280;54864;52.002;5.468;2022-12-20T00:34:23;101163.97;;;12.17;65.29
68075;BME280;54864;52.002;5.468;2022-12-20T00:35:24;101163.34;;;12.12;65.24
68075;BME280;54864;52.002;5.468;2022-12-20T00:36:27;101168.19;;;12.02;65.38
68075;BME280;54864;52.002;5.468;2022-12-20T00:37:29;101165.97;;;12.12;65.03
68075;BME280;54864;52.002;5.468;2022-12-20T00:38:31;101159.75;;;12.13;65.17
68075;BME280;54864;52.002;5.468;2022-12-20T00:39:31;101161.19;;;12.20;64.86
68075;BME280;54864;52.002;5.468;2022-12-20T00:40:33;101149.06;;;12.16;64.82
68075;BME280;54864;52.002;5.468;2022-12-20T00:41:34;101155.34;;;12.13;65.16
68075;BME280;54864;52.002;5.468;2022-12-20T00:42:36;101149.47;;;12.06;65.38
68075;BME280;54864;52.002;5.468;2022-12-20T00:43:37;101144.56;;;12.18;64.90
68075;BME280;54864;52.002;5.468;2022-12-20T00:44:39;101146.41;;;12.16;64.62
68075;BME280;54864;52.002;5.468;2022-12-20T00:45:40;101149.63;;;12.22;64.83
68075;BME280;54864;52.002;5.468;2022-12-20T00:46:42;101158.84;;;12.14;64.56
68075;BME280;54864;52.002;5.468;2022-12-20T00:47:45;101152.63;;;12.15;64.45
68075;BME280;54864;52.002;5.468;2022-12-20T00:48:46;101160.19;;;12.22;64.47
68075;BME280;54864;52.002;5.468;2022-12-20T00:49:48;101154.63;;;12.28;64.19
68075;BME280;54864;52.002;5.468;2022-12-20T00:50:48;101158.84;;;12.32;64.23
68075;BME280;54864;52.002;5.468;2022-12-20T00:51:50;101152.69;;;12.32;64.07
68075;BME280;54864;52.002;5.468;2022-12-20T00:52:51;101152.41;;;12.19;64.17
68075;BME280;54864;52.002;5.468;2022-12-20T00:53:53;101159.25;;;12.23;64.53
68075;BME280;54864;52.002;5.468;2022-12-20T00:54:54;101145.28;;;12.40;63.99
68075;BME280;54864;52.002;5.468;2022-12-20T00:55:56;101150.97;;;12.31;64.25
68075;BME280;54864;52.002;5.468;2022-12-20T00:57:17;101147.63;;;12.27;64.30
68075;BME280;54864;52.002;5.468;2022-12-20T00:58:41;101140.41;;;12.31;64.53
68075;BME280;54864;52.002;5.468;2022-12-20T01:00:03;101140.31;;;12.32;64.35
68075;BME280;54864;52.002;5.468;2022-12-20T01:01:28;101144.34;;;12.41;64.10
68075;BME280;54864;52.002;5.468;2022-12-20T01:02:52;101144.28;;;12.43;63.88
68075;BME280;54864;52.002;5.468;2022-12-20T01:04:13;101143.81;;;12.33;64.07
68075;BME280;54864;52.002;5.468;2022-12-20T01:05:35;101144.13;;;12.46;63.57
68075;BME280;54864;52.002;5.468;2022-12-20T01:06:56;101135.56;;;12.41;64.05
68075;BME280;54864;52.002;5.468;2022-12-20T01:08:19;101141.06;;;12.36;64.03
68075;BME280;54864;52.002;5.468;2022-12-20T01:09:40;101146.69;;;12.47;63.88
68075;BME280;54864;52.002;5.468;2022-12-20T01:11:06;101149.97;;;12.52;63.83
68075;BME280;54864;52.002;5.468;2022-12-20T01:12:27;101155.03;;;12.57;64.08
68075;BME280;54864;52.002;5.468;2022-12-20T01:13:52;101151.47;;;12.58;63.92
68075;BME280;54864;52.002;5.468;2022-12-20T01:15:07;101149.03;;;12.53;64.05
68075;BME280;54864;52.002;5.468;2022-12-20T01:16:10;101150.06;;;12.51;64.21
68075;BME280;54864;52.002;5.468;2022-12-20T01:17:12;101156.28;;;12.50;64.20
68075;BME280;54864;52.002;5.468;2022-12-20T01:18:14;101162.63;;;12.46;64.62
68075;BME280;54864;52.002;5.468;2022-12-20T01:19:17;101152.06;;;12.46;64.74
68075;BME280;54864;52.002;5.468;2022-12-20T01:20:18;101144.50;;;12.38;65.20
68075;BME280;54864;52.002;5.468;2022-12-20T01:21:21;101145.22;;;12.42;65.56
68075;BME280;54864;52.002;5.468;2022-12-20T01:22:23;101153.69;;;12.29;66.49
68075;BME280;54864;52.002;5.468;2022-12-20T01:23:24;101153.84;;;12.26;66.61
68075;BME280;54864;52.002;5.468;2022-12-20T01:24:26;101152.75;;;12.30;67.05
68075;BME280;54864;52.002;5.468;2022-12-20T01:25:26;101161.38;;;12.35;66.94
68075;BME280;54864;52.002;5.468;2022-12-20T01:26:28;101151.41;;;12.22;67.62
68075;BME280;54864;52.002;5.468;2022-12-20T01:27:29;101157.41;;;12.25;68.07
68075;BME280;54864;52.002;5.468;2022-12-20T01:28:31;101160.06;;;12.25;67.71
68075;BME280;54864;52.002;5.468;2022-12-20T01:29:32;101162.56;;;12.10;68.50
68075;BME280;54864;52.002;5.468;2022-12-20T01:30:34;101169.91;;;12.22;68.40
68075;BME280;54864;52.002;5.468;2022-12-20T01:31:34;101152.03;;;12.27;68.82
68075;BME280;54864;52.002;5.468;2022-12-20T01:32:36;101161.84;;;12.25;68.88
68075;BME280;54864;52.002;5.468;2022-12-20T01:33:39;101163.84;;;12.01;69.63
68075;BME280;54864;52.002;5.468;2022-12-20T01:34:41;101156.13;;;12.15;69.34
68075;BME280;54864;52.002;5.468;2022-12-20T01:35:41;101167.75;;;12.11;69.50
68075;BME280;54864;52.002;5.468;2022-12-20T01:36:43;101160.41;;;12.18;69.82
68075;BME280;54864;52.002;5.468;2022-12-20T01:37:44;101159.63;;;12.16;69.39
68075;BME280;54864;52.002;5.468;2022-12-20T01:38:45;101155.69;;;12.05;70.55
68075;BME280;54864;52.002;5.468;2022-12-20T01:39:46;101159.91;;;11.91;70.65
68075;BME280;54864;52.002;5.468;2022-12-20T01:40:48;101169.81;;;11.86;71.42
68075;BME280;54864;52.002;5.468;2022-12-20T01:41:48;101162.09;;;11.81;71.92
68075;BME280;54864;52.002;5.468;2022-12-20T01:42:50;101153.16;;;11.63;72.22
68075;BME280;54864;52.002;5.468;2022-12-20T01:43:53;101160.16;;;11.64;73.16
68075;BME280;54864;52.002;5.468;2022-12-20T01:44:57;101159.28;;;11.64;73.68
68075;BME280;54864;52.002;5.468;2022-12-20T01:45:58;101147.72;;;11.66;73.35
68075;BME280;54864;52.002;5.468;2022-12-20T01:47:00;101159.00;;;11.70;73.50
68075;BME280;54864;52.002;5.468;2022-12-20T01:48:01;101145.03;;;11.68;73.73
68075;BME280;54864;52.002;5.468;2022-12-20T01:49:07;101150.38;;;11.66;74.42
68075;BME280;54864;52.002;5.468;2022-12-20T01:50:10;101151.97;;;11.70;74.38
68075;BME280;54864;52.002;5.468;2022-12-20T01:51:12;101144.00;;;11.72;73.85
68075;BME280;54864;52.002;5.468;2022-12-20T01:52:15;101131.81;;;11.68;73.85
68075;BME280;54864;52.002;5.468;2022-12-20T01:53:20;101132.50;;;11.73;73.91
68075;BME280;54864;52.002;5.468;2022-12-20T01:54:26;101129.06;;;11.71;73.97
68075;BME280;54864;52.002;5.468;2022-12-20T01:55:29;101129.09;;;11.69;74.29
68075;BME280;54864;52.002;5.468;2022-12-20T01:56:30;101121.38;;;11.65;74.45
68075;BME280;54864;52.002;5.468;2022-12-20T01:57:36;101125.00;;;11.43;75.28
68075;BME280;54864;52.002;5.468;2022-12-20T01:58:41;101123.78;;;11.51;75.50
68075;BME280;54864;52.002;5.468;2022-12-20T01:59:43;101123.94;;;11.48;75.39
68075;BME280;54864;52.002;5.468;2022-12-20T02:00:46;101111.72;;;11.45;75.70
68075;BME280;54864;52.002;5.468;2022-12-20T02:01:48;101123.00;;;11.49;75.24
68075;BME280;54864;52.002;5.468;2022-12-20T02:02:49;101111.50;;;11.50;75.75
68075;BME280;54864;52.002;5.468;2022-12-20T02:03:53;101104.66;;;11.46;75.61
68075;BME280;54864;52.002;5.468;2022-12-20T02:04:55;101094.72;;;11.32;76.46
68075;BME280;54864;52.002;5.468;2022-12-20T02:06:13;101104.00;;;11.40;75.92
68075;BME280;54864;52.002;5.468;2022-12-20T02:07:18;101098.72;;;11.40;76.01
68075;BME280;54864;52.002;5.468;2022-12-20T02:08:21;101100.72;;;11.35;76.07
68075;BME280;54864;52.002;5.468;2022-12-20T02:09:21;101097.16;;;11.36;76.35
68075;BME280;54864;52.002;5.468;2022-12-20T02:10:32;101087.13;;;11.24;76.80
68075;BME280;54864;52.002;5.468;2022-12-20T02:11:54;101091.75;;;11.19;77.22
68075;BME280;54864;52.002;5.468;2022-12-20T02:13:06;101079.69;;;11.14;77.35
68075;BME280;54864;52.002;5.468;2022-12-20T02:14:13;101084.97;;;11.14;77.93
68075;BME280;54864;52.002;5.468;2022-12-20T02:15:31;101081.66;;;11.08;77.97
68075;BME280;54864;52.002;5.468;2022-12-20T02:16:43;101079.09;;;11.07;78.31
68075;BME280;54864;52.002;5.468;2022-12-20T02:17:53;101073.19;;;11.00;78.61
68075;BME280;54864;52.002;5.468;2022-12-20T02:19:00;101079.84;;;10.89;79.76
68075;BME280;54864;52.002;5.468;2022-12-20T02:21:37;101071.94;;;10.89;80.01
68075;BME280;54864;52.002;5.468;2022-12-20T02:22:56;101076.09;;;10.94;80.07
68075;BME280;54864;52.002;5.468;2022-12-20T02:26:06;101086.38;;;11.00;80.23
68075;BME280;54864;52.002;5.468;2022-12-20T02:27:27;101082.53;;;11.09;79.71
68075;BME280;54864;52.002;5.468;2022-12-20T02:28:46;101087.16;;;11.02;79.87
68075;BME280;54864;52.002;5.468;2022-12-20T02:30:02;101091.53;;;11.03;80.15
68075;BME280;54864;52.002;5.468;2022-12-20T02:31:07;101100.38;;;11.02;80.35
68075;BME280;54864;52.002;5.468;2022-12-20T02:32:15;101089.44;;;11.11;80.39
68075;BME280;54864;52.002;5.468;2022-12-20T02:33:18;101091.03;;;11.16;80.39
68075;BME280;54864;52.002;5.468;2022-12-20T02:34:22;101097.88;;;11.20;79.91
68075;BME280;54864;52.002;5.468;2022-12-20T02:35:29;101089.09;;;11.19;79.36
68075;BME280;54864;52.002;5.468;2022-12-20T02:36:30;101083.75;;;11.21;79.03
68075;BME280;54864;52.002;5.468;2022-12-20T02:37:32;101088.72;;;11.28;78.78
68075;BME280;54864;52.002;5.468;2022-12-20T02:38:35;101085.16;;;11.29;78.67
68075;BME280;54864;52.002;5.468;2022-12-20T02:39:39;101079.88;;;11.29;78.63
68075;BME280;54864;52.002;5.468;2022-12-20T02:40:42;101070.38;;;11.25;78.61
68075;BME280;54864;52.002;5.468;2022-12-20T02:41:47;101072.22;;;11.23;78.87
68075;BME280;54864;52.002;5.468;2022-12-20T02:42:53;101070.16;;;11.30;78.73
68075;BME280;54864;52.002;5.468;2022-12-20T02:43:59;101072.16;;;11.25;78.92
68075;BME280;54864;52.002;5.468;2022-12-20T02:45:23;101078.16;;;11.28;78.75
68075;BME280;54864;52.002;5.468;2022-12-20T02:46:26;101082.31;;;11.34;78.59
68075;BME280;54864;52.002;5.468;2022-12-20T02:47:31;101078.81;;;11.33;77.94
68075;BME280;54864;52.002;5.468;2022-12-20T02:48:35;101079.59;;;11.35;78.24
68075;BME280;54864;52.002;5.468;2022-12-20T02:49:38;101072.81;;;11.30;78.70
68075;BME280;54864;52.002;5.468;2022-12-20T02:50:45;101075.78;;;11.22;79.13
68075;BME280;54864;52.002;5.468;2022-12-20T02:51:50;101073.47;;;11.15;79.16
68075;BME280;54864;52.002;5.468;2022-12-20T02:52:52;101090.91;;;11.19;79.55
68075;BME280;54864;52.002;5.468;2022-12-20T02:53:54;101083.13;;;11.16;79.70
68075;BME280;54864;52.002;5.468;2022-12-20T02:54:57;101085.47;;;11.22;78.95
68075;BME280;54864;52.002;5.468;2022-12-20T02:56:05;101081.31;;;11.16;79.03
68075;BME280;54864;52.002;5.468;2022-12-20T02:57:15;101081.19;;;11.19;78.79
68075;BME280;54864;52.002;5.468;2022-12-20T02:58:23;101074.41;;;11.14;78.73
68075;BME280;54864;52.002;5.468;2022-12-20T02:59:29;101075.59;;;11.06;79.46
68075;BME280;54864;52.002;5.468;2022-12-20T03:00:38;101070.34;;;11.05;79.58
68075;BME280;54864;52.002;5.468;2022-12-20T03:01:44;101076.81;;;10.98;80.07
68075;BME280;54864;52.002;5.468;2022-12-20T03:02:49;101080.31;;;10.98;79.89
68075;BME280;54864;52.002;5.468;2022-12-20T03:04:09;101081.66;;;11.08;79.52
68075;BME280;54864;52.002;5.468;2022-12-20T03:05:12;101079.25;;;11.02;79.29
68075;BME280;54864;52.002;5.468;2022-12-20T03:06:12;101078.03;;;11.11;79.16
68075;BME280;54864;52.002;5.468;2022-12-20T03:07:14;101078.81;;;11.13;79.11
68075;BME280;54864;52.002;5.468;2022-12-20T03:08:16;101066.69;;;11.09;79.28
68075;BME280;54864;52.002;5.468;2022-12-20T03:09:18;101069.00;;;11.17;78.67
68075;BME280;54864;52.002;5.468;2022-12-20T03:10:19;101072.28;;;11.22;78.26
68075;BME280;54864;52.002;5.468;2022-12-20T03:11:21;101068.41;;;11.10;78.85
68075;BME280;54864;52.002;5.468;2022-12-20T03:12:22;101075.00;;;11.20;78.58
68075;BME280;54864;52.002;5.468;2022-12-20T03:13:24;101074.94;;;11.22;78.05
68075;BME280;54864;52.002;5.468;2022-12-20T03:14:25;101075.97;;;11.18;78.10
68075;BME280;54864;52.002;5.468;2022-12-20T03:15:27;101077.75;;;11.17;78.18
68075;BME280;54864;52.002;5.468;2022-12-20T03:16:29;101074.13;;;11.20;77.67
68075;BME280;54864;52.002;5.468;2022-12-20T03:17:31;101081.06;;;11.22;77.75
68075;BME280;54864;52.002;5.468;2022-12-20T03:18:31;101075.25;;;11.14;78.04
68075;BME280;54864;52.002;5.468;2022-12-20T03:19:33;101081.59;;;11.10;77.95
68075;BME280;54864;52.002;5.468;2022-12-20T03:20:34;101087.47;;;11.17;77.81
68075;BME280;54864;52.002;5.468;2022-12-20T03:21:36;101086.66;;;11.15;78.06
68075;BME280;54864;52.002;5.468;2022-12-20T03:22:37;101083.97;;;11.16;78.32
68075;BME280;54864;52.002;5.468;2022-12-20T03:23:40;101083.59;;;11.03;78.39
68075;BME280;54864;52.002;5.468;2022-12-20T03:24:40;101087.53;;;11.15;77.86
68075;BME280;54864;52.002;5.468;2022-12-20T03:25:42;101079.34;;;11.21;77.33
68075;BME280;54864;52.002;5.468;2022-12-20T03:26:43;101078.56;;;11.19;77.46
68075;BME280;54864;52.002;5.468;2022-12-20T03:27:45;101080.00;;;11.26;77.27
68075;BME280;54864;52.002;5.468;2022-12-20T03:28:45;101071.28;;;11.24;77.08
68075;BME280;54864;52.002;5.468;2022-12-20T03:29:47;101072.00;;;11.28;77.01
68075;BME280;54864;52.002;5.468;2022-12-20T03:30:48;101068.84;;;11.20;76.94
68075;BME280;54864;52.002;5.468;2022-12-20T03:31:51;101076.63;;;11.23;77.05
68075;BME280;54864;52.002;5.468;2022-12-20T03:32:52;101076.84;;;11.18;77.31
68075;BME280;54864;52.002;5.468;2022-12-20T03:33:53;101076.78;;;11.20;77.53
68075;BME280;54864;52.002;5.468;2022-12-20T03:34:54;101071.16;;;11.27;77.22
68075;BME280;54864;52.002;5.468;2022-12-20T03:35:56;101078.66;;;11.36;76.80
68075;BME280;54864;52.002;5.468;2022-12-20T03:36:57;101082.75;;;11.43;76.11
68075;BME280;54864;52.002;5.468;2022-12-20T03:37:59;101088.16;;;11.40;75.86
68075;BME280;54864;52.002;5.468;2022-12-20T03:38:59;101092.44;;;11.43;76.27
68075;BME280;54864;52.002;5.468;2022-12-20T03:40:01;101070.75;;;11.36;76.14
68075;BME280;54864;52.002;5.468;2022-12-20T03:41:02;101068.69;;;11.43;76.11
68075;BME280;54864;52.002;5.468;2022-12-20T03:42:04;101057.28;;;11.42;75.75
68075;BME280;54864;52.002;5.468;2022-12-20T03:43:04;101059.13;;;11.40;76.27
68075;BME280;54864;52.002;5.468;2022-12-20T03:44:06;101057.34;;;11.41;76.08
68075;BME280;54864;52.002;5.468;2022-12-20T03:45:07;101050.13;;;11.44;75.75
68075;BME280;54864;52.002;5.468;2022-12-20T03:46:09;101064.47;;;11.39;75.73
68075;BME280;54864;52.002;5.468;2022-12-20T03:47:11;101054.31;;;11.30;76.05
68075;BME280;54864;52.002;5.468;2022-12-20T03:48:13;101059.69;;;11.47;75.76
68075;BME280;54864;52.002;5.468;2022-12-20T03:49:14;101068.28;;;11.52;75.66
68075;BME280;54864;52.002;5.468;2022-12-20T03:50:16;101056.22;;;11.47;75.77
68075;BME280;54864;52.002;5.468;2022-12-20T03:51:17;101056.22;;;11.47;75.97
68075;BME280;54864;52.002;5.468;2022-12-20T03:52:18;101064.78;;;11.52;75.69
68075;BME280;54864;52.002;5.468;2022-12-20T03:53:19;101062.00;;;11.55;75.40
68075;BME280;54864;52.002;5.468;2022-12-20T03:54:21;101063.19;;;11.48;75.51
68075;BME280;54864;52.002;5.468;2022-12-20T03:55:22;101067.63;;;11.47;75.80
68075;BME280;54864;52.002;5.468;2022-12-20T03:56:24;101065.63;;;11.52;75.61
68075;BME280;54864;52.002;5.468;2022-12-20T03:57:25;101078.53;;;11.39;75.26
68075;BME280;54864;52.002;5.468;2022-12-20T03:58:27;101066.47;;;11.34;76.27
68075;BME280;54864;52.002;5.468;2022-12-20T03:59:28;101061.34;;;11.50;75.51
68075;BME280;54864;52.002;5.468;2022-12-20T04:00:29;101058.91;;;11.45;75.91
68075;BME280;54864;52.002;5.468;2022-12-20T04:01:30;101056.66;;;11.56;75.33
68075;BME280;54864;52.002;5.468;2022-12-20T04:02:37;101053.94;;;11.58;75.35
68075;BME280;54864;52.002;5.468;2022-12-20T04:03:37;101056.66;;;11.56;74.78
68075;BME280;54864;52.002;5.468;2022-12-20T04:04:39;101050.66;;;11.53;75.06
68075;BME280;54864;52.002;5.468;2022-12-20T04:05:40;101057.44;;;11.58;75.01
68075;BME280;54864;52.002;5.468;2022-12-20T04:06:42;101046.22;;;11.53;75.11
68075;BME280;54864;52.002;5.468;2022-12-20T04:07:42;101050.94;;;11.47;75.40
68075;BME280;54864;52.002;5.468;2022-12-20T04:08:44;101041.63;;;11.38;75.74
68075;BME280;54864;52.002;5.468;2022-12-20T04:09:45;101036.16;;;11.42;75.90
68075;BME280;54864;52.002;5.468;2022-12-20T04:10:47;101045.44;;;11.51;75.42
68075;BME280;54864;52.002;5.468;2022-12-20T04:12:06;101033.31;;;11.47;75.62
68075;BME280;54864;52.002;5.468;2022-12-20T04:13:08;101037.22;;;11.57;75.68
68075;BME280;54864;52.002;5.468;2022-12-20T04:14:09;101033.53;;;11.61;75.47
68075;BME280;54864;52.002;5.468;2022-12-20T04:15:10;101041.38;;;11.63;75.37
68075;BME280;54864;52.002;5.468;2022-12-20T04:16:12;101036.94;;;11.63;75.11
68075;BME280;54864;52.002;5.468;2022-12-20T04:17:14;101031.59;;;11.65;74.81
68075;BME280;54864;52.002;5.468;2022-12-20T04:18:16;101037.22;;;11.57;75.12
68075;BME280;54864;52.002;5.468;2022-12-20T04:19:19;101038.03;;;11.59;75.00
68075;BME280;54864;52.002;5.468;2022-12-20T04:20:20;101038.34;;;11.72;74.72
68075;BME280;54864;52.002;5.468;2022-12-20T04:21:22;101039.88;;;11.78;74.47
68075;BME280;54864;52.002;5.468;2022-12-20T04:22:23;101048.00;;;11.53;75.20
68075;BME280;54864;52.002;5.468;2022-12-20T04:23:25;101048.44;;;11.62;74.92
68075;BME280;54864;52.002;5.468;2022-12-20T04:24:25;101045.72;;;11.64;74.72
68075;BME280;54864;52.002;5.468;2022-12-20T04:25:27;101033.16;;;11.50;74.93
68075;BME280;54864;52.002;5.468;2022-12-20T04:26:28;101040.13;;;11.71;74.71
68075;BME280;54864;52.002;5.468;2022-12-20T04:27:29;101034.84;;;11.71;74.65
68075;BME280;54864;52.002;5.468;2022-12-20T04:28:30;101034.94;;;11.68;74.46
68075;BME280;54864;52.002;5.468;2022-12-20T04:29:32;101026.06;;;11.71;74.75
68075;BME280;54864;52.002;5.468;2022-12-20T04:30:33;101032.66;;;11.81;74.37
68075;BME280;54864;52.002;5.468;2022-12-20T04:31:35;101025.91;;;11.74;74.41
68075;BME280;54864;52.002;5.468;2022-12-20T04:32:35;101031.06;;;11.77;74.06
68075;BME280;54864;52.002;5.468;2022-12-20T04:33:38;101031.06;;;11.77;74.19
68075;BME280;54864;52.002;5.468;2022-12-20T04:34:39;101027.63;;;11.75;73.94
68075;BME280;54864;52.002;5.468;2022-12-20T04:35:41;101029.72;;;11.87;73.54
68075;BME280;54864;52.002;5.468;2022-12-20T04:36:42;101030.72;;;11.85;73.51
68075;BME280;54864;52.002;5.468;2022-12-20T04:37:43;101032.72;;;11.80;74.03
68075;BME280;54864;52.002;5.468;2022-12-20T04:38:44;101040.84;;;11.75;74.00
68075;BME280;54864;52.002;5.468;2022-12-20T04:39:46;101031.81;;;11.81;73.95
68075;BME280;54864;52.002;5.468;2022-12-20T04:40:48;101035.00;;;11.87;73.89
68075;BME280;54864;52.002;5.468;2022-12-20T04:41:50;101039.44;;;11.87;74.01
68075;BME280;54864;52.002;5.468;2022-12-20T04:42:51;101027.78;;;11.72;74.11
68075;BME280;54864;52.002;5.468;2022-12-20T04:43:54;101042.63;;;11.74;74.19
68075;BME280;54864;52.002;5.468;2022-12-20T04:44:55;101033.78;;;11.75;74.42
68075;BME280;54864;52.002;5.468;2022-12-20T04:45:57;101025.59;;;11.61;74.45
68075;BME280;54864;52.002;5.468;2022-12-20T04:46:58;101033.13;;;11.70;74.61
68075;BME280;54864;52.002;5.468;2022-12-20T04:48:04;101043.38;;;11.78;74.14
68075;BME280;54864;52.002;5.468;2022-12-20T04:49:27;101026.69;;;11.76;74.93
68075;BME280;54864;52.002;5.468;2022-12-20T04:50:49;101025.16;;;11.91;74.83
68075;BME280;54864;52.002;5.468;2022-12-20T04:52:10;101034.16;;;11.87;74.87
68075;BME280;54864;52.002;5.468;2022-12-20T04:53:50;101035.72;;;11.91;75.14
68075;BME280;54864;52.002;5.468;2022-12-20T04:55:12;101035.28;;;11.81;75.66
68075;BME280;54864;52.002;5.468;2022-12-20T04:56:16;101029.59;;;11.90;75.56
68075;BME280;54864;52.002;5.468;2022-12-20T04:57:18;101037.22;;;11.96;75.41
68075;BME280;54864;52.002;5.468;2022-12-20T04:58:19;101031.63;;;12.02;75.46
68075;BME280;54864;52.002;5.468;2022-12-20T04:59:21;101030.13;;;11.97;75.43
68075;BME280;54864;52.002;5.468;2022-12-20T05:00:22;101034.34;;;12.01;75.73
68075;BME280;54864;52.002;5.468;2022-12-20T05:01:23;101029.00;;;12.02;75.55
68075;BME280;54864;52.002;5.468;2022-12-20T05:02:25;101021.78;;;12.06;75.84
68075;BME280;54864;52.002;5.468;2022-12-20T05:03:26;101031.16;;;11.94;75.75
68075;BME280;54864;52.002;5.468;2022-12-20T05:04:30;101021.00;;;11.85;76.09
68075;BME280;54864;52.002;5.468;2022-12-20T05:05:30;101027.50;;;11.97;76.10
68075;BME280;54864;52.002;5.468;2022-12-20T05:06:32;101017.06;;;11.94;76.11
68075;BME280;54864;52.002;5.468;2022-12-20T05:07:34;101018.28;;;12.05;75.58
68075;BME280;54864;52.002;5.468;2022-12-20T05:08:35;101024.13;;;12.12;75.27
68075;BME280;54864;52.002;5.468;2022-12-20T05:09:37;101014.28;;;11.97;76.10
68075;BME280;54864;52.002;5.468;2022-12-20T05:10:38;101010.78;;;11.96;76.81
68075;BME280;54864;52.002;5.468;2022-12-20T05:11:40;101004.84;;;11.72;77.44
68075;BME280;54864;52.002;5.468;2022-12-20T05:12:42;101006.03;;;11.86;77.68
68075;BME280;54864;52.002;5.468;2022-12-20T05:13:44;101002.59;;;11.84;77.41
68075;BME280;54864;52.002;5.468;2022-12-20T05:14:45;101006.59;;;11.92;77.30
68075;BME280;54864;52.002;5.468;2022-12-20T05:15:50;101011.50;;;12.00;77.04
68075;BME280;54864;52.002;5.468;2022-12-20T05:16:52;101008.63;;;12.04;76.48
68075;BME280;54864;52.002;5.468;2022-12-20T05:17:53;101007.50;;;11.91;76.87
68075;BME280;54864;52.002;5.468;2022-12-20T05:18:58;101003.66;;;11.98;76.87
68075;BME280;54864;52.002;5.468;2022-12-20T05:20:05;101006.44;;;11.95;77.12
68075;BME280;54864;52.002;5.468;2022-12-20T05:21:06;101002.34;;;12.07;76.77
68075;BME280;54864;52.002;5.468;2022-12-20T05:22:25;100997.13;;;12.05;76.60
68075;BME280;54864;52.002;5.468;2022-12-20T05:23:44;100997.69;;;12.12;76.32
68075;BME280;54864;52.002;5.468;2022-12-20T05:25:04;100999.63;;;12.09;76.74
68075;BME280;54864;52.002;5.468;2022-12-20T05:26:23;101000.16;;;11.98;77.07
68075;BME280;54864;52.002;5.468;2022-12-20T05:27:26;100993.00;;;12.00;77.37
68075;BME280;54864;52.002;5.468;2022-12-20T05:28:47;100991.69;;;12.09;77.24
68075;BME280;54864;52.002;5.468;2022-12-20T05:29:48;100995.69;;;12.17;76.75
68075;BME280;54864;52.002;5.468;2022-12-20T05:30:49;101000.59;;;12.25;76.03
68075;BME280;54864;52.002;5.468;2022-12-20T05:31:51;100992.03;;;12.20;76.10
68075;BME280;54864;52.002;5.468;2022-12-20T05:32:52;100991.47;;;12.13;76.58
68075;BME280;54864;52.002;5.468;2022-12-20T05:33:53;100993.34;;;12.11;76.64
68075;BME280;54864;52.002;5.468;2022-12-20T05:34:54;100988.28;;;12.06;77.10
68075;BME280;54864;52.002;5.468;2022-12-20T05:35:57;100987.31;;;11.90;77.56
68075;BME280;54864;52.002;5.468;2022-12-20T05:36:58;100990.16;;;11.86;78.07
68075;BME280;54864;52.002;5.468;2022-12-20T05:38:00;100986.13;;;11.79;78.81
68075;BME280;54864;52.002;5.468;2022-12-20T05:39:01;100985.09;;;11.81;78.79
68075;BME280;54864;52.002;5.468;2022-12-20T05:40:04;100984.59;;;11.73;79.35